createdAt,value
2018-09-14T00:03:09.951Z,98641.18
2018-09-14T00:23:52.295Z,98631.86
2018-09-14T00:44:31.916Z,98632.53
2018-09-14T01:05:12.971Z,98641.45
2018-09-14T01:25:55.500Z,98640.63
2018-09-14T01:46:38.565Z,98644.77
2018-09-14T02:07:15.687Z,98635.86
2018-09-14T02:28:02.405Z,98621.87
2018-09-14T02:48:45.587Z,98614.75
2018-09-14T03:09:27.921Z,98610.92
2018-09-14T03:30:06.884Z,98609.02
2018-09-14T03:50:48.300Z,98590.16
2018-09-14T04:11:28.485Z,98584.80
2018-09-14T04:32:10.144Z,98598.56
2018-09-14T04:52:47.017Z,98602.02
2018-09-14T05:13:26.857Z,98612.05
2018-09-14T05:34:09.850Z,98614.47
2018-09-14T05:54:53.112Z,98627.55
2018-09-14T06:15:36.381Z,98638.20
2018-09-14T06:36:18.904Z,98645.16
2018-09-14T06:57:01.972Z,98658.30
2018-09-14T07:17:45.228Z,98664.83
2018-09-14T07:38:27.824Z,98672.10
2018-09-14T07:59:06.835Z,98681.36
2018-09-14T08:19:50.096Z,98691.03
2018-09-14T08:40:30.865Z,98701.55
2018-09-14T09:01:08.626Z,98706.25
2018-09-14T09:21:45.125Z,98703.94
2018-09-14T09:42:26.234Z,98686.39
2018-09-14T10:03:08.576Z,98660.40
2018-09-14T10:23:46.611Z,98654.60
2018-09-14T10:44:24.038Z,98642.45
2018-09-14T11:05:03.855Z,98611.67
2018-09-14T11:25:42.586Z,98604.24
2018-09-14T11:46:27.173Z,98586.20
2018-09-14T12:07:11.239Z,98575.05
2018-09-14T12:27:52.654Z,98573.27
2018-09-14T12:48:37.765Z,98548.23
2018-09-14T13:09:21.015Z,98550.90
2018-09-14T13:29:58.438Z,98535.20
2018-09-14T13:50:40.973Z,98520.02
2018-09-14T14:11:24.037Z,98522.69
2018-09-14T14:32:06.379Z,98513.09
2018-09-14T14:52:44.413Z,98501.53
2018-09-14T15:13:24.907Z,98518.13
2018-09-14T15:34:08.785Z,98511.49
2018-09-14T15:54:51.428Z,98524.83
2018-09-14T16:15:29.772Z,98529.03
2018-09-14T16:36:07.811Z,98543.47
2018-09-14T16:56:50.724Z,98556.63
2018-09-14T17:17:31.573Z,98552.71
2018-09-14T17:38:09.016Z,98572.12
2018-09-14T17:58:51.329Z,98575.17
2018-09-14T18:19:36.755Z,98603.48
2018-09-14T18:40:21.838Z,98603.41
2018-09-14T19:00:59.877Z,98630.55
2018-09-14T19:21:43.444Z,98653.61
2018-09-14T19:42:25.781Z,98660.77
2018-09-14T20:03:09.340Z,98660.88
2018-09-14T20:23:51.381Z,98682.37
2018-09-14T20:44:31.568Z,98699.73
2018-09-14T21:05:14.142Z,98702.16
2018-09-14T21:25:56.442Z,98725.55
2018-09-14T21:46:38.585Z,98744.33
2018-09-14T22:07:18.773Z,98755.59
2018-09-14T22:28:00.473Z,98775.69
2018-09-14T22:48:50.515Z,98774.52
2018-09-14T23:27:38.516Z,98814.41
2018-09-14T23:48:19.626Z,98822.84
